LYTV Airport Information

Runway Information
Runway 14 Length 8208 ft width 148 ft
Elevation 7 ft Threshold 0 ft Heading 139
Runway 32 Length 8208 ft Width 148 ft
Elevation 16 ft Threshold 0 ft Heading 319
Airport Frequencies
Type ARR Name APP Frequency 118 MHZ
Type TWR Name TWR Frequency 118 MHZ
Airport Navaids
Type NDB Name Tivat Frequency 345 KHZ
Airport Weather Information & NOTAM
ADDS - METARS form results

(1358 UTC 05 December 2020)
Data provider http://aviationweather.gov/metar/data/
 
METAR text: LYTV 051330Z 16005KT 130V220 9999 SCT050 BKN073 17/07 Q1012 NOSIG
Conditions at: LYTV (TIVAT , CS) observed 1330 UTC 05 December 2020
Temperature: 17.0°C (63°F)
Dewpoint: 7.0°C (45°F) [RH = 52%]
Pressure (altimeter): 29.88 inches Hg (1012.0 mb)
Winds: from the SSE (160 degrees) at 6 MPH (5 knots; 2.6 m/s)
Visibility: 6 or more miles (10+ km)
Ceiling: 7300 feet AGL
Clouds: scattered clouds at 5000 feet AGL
broken clouds at 7300 feet AGL
Weather: no significant weather observed at this time

METAR text: LYTV 051300Z 19004KT 150V250 9999 FEW053 17/08 Q1012 NOSIG
Conditions at: LYTV (TIVAT , CS) observed 1300 UTC 05 December 2020
Temperature: 17.0°C (63°F)
Dewpoint: 8.0°C (46°F) [RH = 55%]
Pressure (altimeter): 29.88 inches Hg (1012.0 mb)
Winds: from the S (190 degrees) at 5 MPH (4 knots; 2.1 m/s)
Visibility: 6 or more miles (10+ km)
Ceiling: at least 12,000 feet AGL
Clouds: few clouds at 5300 feet AGL
Weather: no significant weather observed at this time

Forecast for: LYTV (TIVAT , CS)
Text: TAF LYTV 051100Z 0512/0612 15009KT 9999 SCT040 BKN080 TX18/0513Z TN10/0605Z
Forecast period: 1200 UTC 05 December 2020 to 1200 UTC 06 December 2020
Forecast type: FROM: standard forecast or significant change
Winds: from the SSE (150 degrees) at 10 MPH (9 knots; 4.6 m/s)
Visibility: 6 or more miles (10+ km)
Ceiling: 8000 feet AGL
Clouds: scattered clouds at 4000 feet AGL
broken clouds at 8000 feet AGL
Weather: no significant weather forecast for this period
Text: PROB40
Forecast period: 1200 to 2200 UTC 05 December 2020
Forecast type: TEMPORARY: The following changes expected for less than half the time period
Winds: from the SSE (160 degrees) at 17 MPH (15 knots; 7.7 m/s)
gusting to 29 MPH (25 knots; 12.9 m/s)
Visibility: 3 miles (5 km)
Ceiling: unknown
Clouds: missing
Weather: RA  (moderate rain)